Íslenskir flugvellir

Veldu flugvelli í þeirri röð sem þeir eiga að birtast og styddu á hnappinn

Uppfært síðast 19.01.2020 - kl. 05:13

SIGMET síðustu 6 klst.

BIRD SIGMET B01 VALID 190445/190800 BIRK- BIRD REYKJAVIK CTA SEV ICE FCST WI N6310 W02110 - N6510 W02150 - N6510 W01330 - N6310 W01350 - N6310 W02110 FL035/160 MOV ENE 25KT NC
BIRD SIGMET A02 VALID 190500/190800 BIRK- BIRD REYKJAVIK CTA SEV TURB FCST WI N6420 W02310 - N6640 W02550 - N6650 W01520 - N6420 W01500 - N6420 W02310 SFC/FL120 STNR NC
BIRD SIGMET A01 VALID 190105/190500 BIRK- BIRD REYKJAVIK CTA SEV TURB FCST WI N6450 W02550 - N6710 W02400 - N6510 W01420 - N6310 W01840 - N6450 W02550 SFC/FL120 STNR INTSF

Egilsstaðir

METAR síðustu 3 klst

TímiSkeyti
2020-01-19 05.00METAR BIEG 190500Z 21018G28KT 9999 -RA SCT035 BKN070 BKN100 04/M01 Q1004 R04/710195 RMK GAGNHEIDI /////
2020-01-19 04.00METAR BIEG 190400Z 20013KT 9999 FEW040 SCT070 BKN100 03/M02 Q1008 R04/710195 RMK GAGNHEIDI /////
2020-01-19 03.00METAR BIEG 190300Z 21014KT 9999 FEW040 BKN100 01/M04 Q1011 R04/710195 RMK GAGNHEIDI /////

TAF

TAFBIEG2020-01-19 05.01Z19060618030G42KT 9999 -RA SCT025 BKN038 OVC050 TX10/1912Z TN03/2006Z BECMG 1909/1911 20020G30KT NSW FEW033 SCT050 PROB40 TEMPO 1909/1917 20028G40KT BECMG 1923/2001 20015KT

Allur vindur er réttvísandi bæði í Metar og frá sjálfvirkum veðurstöðvum




Aðrir tengdir vefir



Þetta vefsvæði byggir á Eplica